createdAt,value
2022-10-20T00:01:43.270Z,1.93
2022-10-20T00:04:10.840Z,1.90
2022-10-20T00:06:39.635Z,2.20
2022-10-20T00:09:07.609Z,1.90
2022-10-20T00:11:35.215Z,1.87
2022-10-20T00:14:03.277Z,2.10
2022-10-20T00:16:32.593Z,2.17
2022-10-20T00:19:00.539Z,2.40
2022-10-20T00:21:29.223Z,2.03
2022-10-20T00:24:00.033Z,1.93
2022-10-20T00:26:28.712Z,1.90
2022-10-20T00:28:56.941Z,2.10
2022-10-20T00:31:25.286Z,2.20
2022-10-20T00:33:52.741Z,2.60
2022-10-20T00:36:22.372Z,2.13
2022-10-20T00:38:50.642Z,2.03
2022-10-20T00:41:21.878Z,2.13
2022-10-20T00:43:51.651Z,1.80
2022-10-20T00:46:21.616Z,1.80
2022-10-20T00:48:53.202Z,1.87
2022-10-20T00:51:24.048Z,1.90
2022-10-20T00:53:53.461Z,2.10
2022-10-20T00:56:23.971Z,2.20
2022-10-20T00:58:51.848Z,2.13
2022-10-20T01:01:19.881Z,1.83
2022-10-20T01:03:50.553Z,1.70
2022-10-20T01:06:20.560Z,2.00
2022-10-20T01:08:48.185Z,1.70
2022-10-20T01:11:22.841Z,2.10
2022-10-20T01:14:20.646Z,1.73
2022-10-20T01:16:59.675Z,1.80
2022-10-20T01:19:51.163Z,2.00
2022-10-20T01:22:33.537Z,1.80
2022-10-20T01:25:17.830Z,2.20
2022-10-20T01:27:49.513Z,1.80
2022-10-20T01:30:19.202Z,1.87
2022-10-20T01:33:07.850Z,1.80
2022-10-20T01:35:44.162Z,2.30
2022-10-20T01:38:23.723Z,1.80
2022-10-20T01:40:55.679Z,1.83
2022-10-20T01:43:28.014Z,1.97
2022-10-20T01:45:58.155Z,2.03
2022-10-20T01:48:29.783Z,1.90
2022-10-20T01:50:57.671Z,2.13
2022-10-20T01:53:25.136Z,1.80
2022-10-20T01:55:55.874Z,2.07
2022-10-20T01:58:54.923Z,2.20
2022-10-20T02:01:34.122Z,2.10
2022-10-20T02:04:04.009Z,2.00
2022-10-20T02:06:39.372Z,1.80
2022-10-20T02:09:09.301Z,2.00
2022-10-20T02:11:43.642Z,2.00
2022-10-20T02:14:15.468Z,1.97
2022-10-20T02:16:48.173Z,1.97
2022-10-20T02:19:19.761Z,2.07
2022-10-20T02:21:48.234Z,1.80
2022-10-20T02:24:18.250Z,2.10
2022-10-20T02:26:46.066Z,1.90
2022-10-20T02:29:16.963Z,1.90
2022-10-20T02:31:45.901Z,2.10
2022-10-20T02:34:13.779Z,1.70
2022-10-20T02:36:43.807Z,1.90
2022-10-20T02:39:11.880Z,2.00
2022-10-20T02:41:39.367Z,1.97
2022-10-20T02:44:06.812Z,2.10
2022-10-20T02:46:35.597Z,1.90
2022-10-20T02:49:03.045Z,1.97
2022-10-20T02:51:30.578Z,1.70
2022-10-20T02:53:58.163Z,1.90
2022-10-20T02:56:27.624Z,1.90
2022-10-20T02:58:57.725Z,2.40
2022-10-20T03:01:25.739Z,2.27
2022-10-20T03:03:58.493Z,2.30
2022-10-20T03:06:26.677Z,1.90
2022-10-20T03:08:54.223Z,2.20
2022-10-20T03:11:21.752Z,2.13
2022-10-20T03:13:49.171Z,2.00
2022-10-20T03:16:16.686Z,2.30
2022-10-20T03:18:44.158Z,2.53
2022-10-20T03:21:13.030Z,2.33
2022-10-20T03:23:40.501Z,2.20
2022-10-20T03:26:11.235Z,2.40
2022-10-20T03:28:39.284Z,2.20
2022-10-20T03:31:06.853Z,1.97
2022-10-20T03:33:34.595Z,2.10
2022-10-20T03:36:02.029Z,2.40
2022-10-20T03:38:30.850Z,2.30
2022-10-20T03:40:58.335Z,2.10
2022-10-20T03:43:25.850Z,2.17
2022-10-20T03:46:02.826Z,2.53
2022-10-20T03:48:30.840Z,2.10
2022-10-20T03:50:58.403Z,2.40
2022-10-20T03:53:26.051Z,2.10
2022-10-20T03:55:54.853Z,2.07
2022-10-20T03:58:22.561Z,2.67
2022-10-20T04:00:50.643Z,2.17
2022-10-20T04:03:18.103Z,2.40
2022-10-20T04:05:45.610Z,2.60
2022-10-20T04:10:45.590Z,1.77
2022-10-20T04:13:14.397Z,2.00
2022-10-20T04:15:41.815Z,2.13
2022-10-20T04:18:09.276Z,1.97
2022-10-20T04:20:39.298Z,2.50
2022-10-20T04:23:09.472Z,2.40
2022-10-20T04:25:40.758Z,2.50
2022-10-20T04:28:08.819Z,2.30
2022-10-20T04:30:39.319Z,2.10
2022-10-20T04:33:06.763Z,2.23
2022-10-20T04:35:34.359Z,2.47
2022-10-20T04:38:01.804Z,2.17
2022-10-20T04:40:29.412Z,2.40
2022-10-20T04:42:56.886Z,2.50
2022-10-20T04:45:24.323Z,2.27
2022-10-20T04:47:53.190Z,2.27
2022-10-20T04:50:20.791Z,2.50
2022-10-20T04:52:48.230Z,2.37
2022-10-20T04:55:15.813Z,2.50
2022-10-20T04:57:43.405Z,2.70
2022-10-20T05:00:11.730Z,2.80
2022-10-20T05:02:39.193Z,2.57
2022-10-20T05:05:08.966Z,2.60
2022-10-20T05:07:36.674Z,2.60
2022-10-20T05:10:04.997Z,2.70
2022-10-20T05:12:32.473Z,2.50
2022-10-20T05:14:59.927Z,2.33
2022-10-20T05:17:29.828Z,2.37
2022-10-20T05:19:57.322Z,2.50
2022-10-20T05:22:26.123Z,2.73
2022-10-20T05:24:53.591Z,2.60
2022-10-20T05:27:21.039Z,2.77
2022-10-20T05:29:48.495Z,2.50
2022-10-20T05:32:15.971Z,3.13
2022-10-20T05:34:43.983Z,2.90
2022-10-20T05:37:11.473Z,3.10
2022-10-20T05:39:40.293Z,2.60
2022-10-20T05:42:07.777Z,2.70
2022-10-20T05:44:35.211Z,2.67
2022-10-20T05:47:02.668Z,2.80
2022-10-20T05:49:30.425Z,3.07
2022-10-20T05:51:57.902Z,3.17
2022-10-20T05:54:25.371Z,3.00
2022-10-20T05:56:54.166Z,3.13
2022-10-20T05:59:21.626Z,2.93
2022-10-20T06:01:49.390Z,2.93
2022-10-20T06:04:18.514Z,3.17
2022-10-20T06:06:46.007Z,3.33
2022-10-20T06:09:13.635Z,3.40
2022-10-20T06:11:41.679Z,3.80
2022-10-20T06:14:10.674Z,3.50
2022-10-20T06:16:38.328Z,3.50
2022-10-20T06:19:07.085Z,3.50
2022-10-20T06:21:35.650Z,3.83
2022-10-20T06:24:05.180Z,3.47
2022-10-20T06:26:34.307Z,3.80
2022-10-20T06:29:04.727Z,4.00
2022-10-20T06:31:35.989Z,3.47
2022-10-20T06:34:06.513Z,3.67
2022-10-20T06:36:36.199Z,3.83
2022-10-20T06:39:06.149Z,4.00
2022-10-20T06:41:34.328Z,3.53
2022-10-20T06:44:02.220Z,3.80
2022-10-20T06:46:31.315Z,3.47
2022-10-20T06:49:03.703Z,3.70
2022-10-20T06:51:31.291Z,3.77
2022-10-20T06:54:00.437Z,3.50
2022-10-20T06:56:29.875Z,3.57
2022-10-20T06:58:58.623Z,3.90
2022-10-20T07:01:28.089Z,3.63
2022-10-20T07:03:57.989Z,3.83
2022-10-20T07:06:29.191Z,4.27
2022-10-20T07:08:57.671Z,4.07
2022-10-20T07:11:27.647Z,4.33
2022-10-20T07:13:55.521Z,4.10
2022-10-20T07:16:25.095Z,4.37
2022-10-20T07:18:52.641Z,4.60
2022-10-20T07:21:21.631Z,4.07
2022-10-20T07:23:52.479Z,4.70
2022-10-20T07:26:21.976Z,4.47
2022-10-20T07:28:55.569Z,4.33
2022-10-20T07:31:25.359Z,4.40
2022-10-20T07:34:07.039Z,4.63
2022-10-20T07:36:42.825Z,4.13
2022-10-20T07:39:13.739Z,4.20
2022-10-20T07:41:44.132Z,4.10
2022-10-20T07:44:11.847Z,4.23
2022-10-20T07:46:39.285Z,4.37
2022-10-20T07:49:38.299Z,4.43
2022-10-20T07:51:54.231Z,4.23
2022-10-20T07:54:23.437Z,4.37
2022-10-20T07:56:50.934Z,4.90
2022-10-20T07:59:18.732Z,4.70
2022-10-20T08:01:46.243Z,4.60
2022-10-20T08:04:13.750Z,4.77
2022-10-20T08:06:41.241Z,4.60
2022-10-20T08:09:08.920Z,4.67
2022-10-20T08:11:37.822Z,4.43
2022-10-20T08:14:05.382Z,4.20
2022-10-20T08:16:34.544Z,4.83
2022-10-20T08:19:07.877Z,4.70
2022-10-20T08:21:35.588Z,5.00
2022-10-20T08:24:03.792Z,4.83
2022-10-20T08:26:31.260Z,4.33
2022-10-20T08:29:00.064Z,5.17
2022-10-20T08:31:27.514Z,4.77
2022-10-20T08:33:54.992Z,4.60
2022-10-20T08:36:22.451Z,5.07
2022-10-20T08:38:50.041Z,5.00
2022-10-20T08:41:20.957Z,5.30
2022-10-20T08:43:51.490Z,4.97
2022-10-20T08:46:23.846Z,4.90
2022-10-20T08:48:52.817Z,4.97
2022-10-20T08:51:23.317Z,5.17
2022-10-20T08:53:54.877Z,5.30
2022-10-20T08:56:26.137Z,4.73
2022-10-20T08:58:54.012Z,4.97
2022-10-20T09:01:25.343Z,5.60
2022-10-20T09:03:57.336Z,5.07
2022-10-20T09:06:25.347Z,5.00
2022-10-20T09:08:53.216Z,5.80
2022-10-20T09:11:24.936Z,6.40
2022-10-20T09:13:54.817Z,6.53
2022-10-20T09:16:40.691Z,6.50
2022-10-20T09:19:19.041Z,6.53
2022-10-20T09:21:50.594Z,6.90
2022-10-20T09:24:19.320Z,6.83
2022-10-20T09:27:03.974Z,6.80
2022-10-20T09:29:40.282Z,6.97
2022-10-20T09:32:46.021Z,6.90
2022-10-20T09:35:21.436Z,7.57
2022-10-20T09:37:54.964Z,7.10
2022-10-20T09:40:24.136Z,8.13
2022-10-20T09:42:55.010Z,7.97
2022-10-20T09:45:25.168Z,7.70
2022-10-20T09:47:57.548Z,8.17
2022-10-20T09:50:29.952Z,7.83
2022-10-20T09:52:59.730Z,7.40
2022-10-20T09:55:30.842Z,7.57
2022-10-20T09:58:01.126Z,7.63
2022-10-20T10:00:37.281Z,7.87
2022-10-20T10:03:23.433Z,8.27
2022-10-20T10:05:52.304Z,7.73
2022-10-20T10:08:21.372Z,8.17
2022-10-20T10:11:00.420Z,7.70
2022-10-20T10:13:31.284Z,7.60
2022-10-20T10:16:04.413Z,7.80
2022-10-20T10:18:33.867Z,7.97
2022-10-20T10:21:05.503Z,8.67
2022-10-20T10:23:36.454Z,8.20
2022-10-20T10:26:25.124Z,8.87
2022-10-20T10:28:59.820Z,9.20
2022-10-20T10:31:28.238Z,8.43
2022-10-20T10:34:19.983Z,8.63
2022-10-20T10:36:47.627Z,8.77
2022-10-20T10:39:16.386Z,7.83
2022-10-20T10:42:04.227Z,9.17
2022-10-20T10:44:44.890Z,8.27
2022-10-20T10:47:29.225Z,8.97
2022-10-20T10:50:03.852Z,8.57
2022-10-20T10:52:45.743Z,9.10
2022-10-20T10:55:48.464Z,8.57
2022-10-20T10:58:20.631Z,8.33
2022-10-20T11:00:59.303Z,8.03
2022-10-20T11:03:45.623Z,8.80
2022-10-20T11:06:22.423Z,8.30
2022-10-20T11:09:03.494Z,8.53
2022-10-20T11:11:43.978Z,8.57
2022-10-20T11:14:21.424Z,8.23
2022-10-20T11:17:04.345Z,7.73
2022-10-20T11:19:52.695Z,8.13
2022-10-20T11:22:29.479Z,8.63
2022-10-20T11:25:06.568Z,8.13
2022-10-20T11:27:37.688Z,8.03
2022-10-20T11:30:15.680Z,8.40
2022-10-20T11:32:48.583Z,7.93
2022-10-20T11:35:26.090Z,7.77
2022-10-20T11:38:03.568Z,8.17
2022-10-20T11:40:36.122Z,7.83
2022-10-20T11:43:13.720Z,8.33
2022-10-20T11:45:50.037Z,8.47
2022-10-20T11:48:24.244Z,7.80
2022-10-20T11:53:50.030Z,7.50
2022-10-20T11:56:34.078Z,8.33
2022-10-20T11:59:26.323Z,8.00
2022-10-20T12:02:24.162Z,7.83
2022-10-20T12:05:19.358Z,7.60
2022-10-20T12:08:28.815Z,8.43
2022-10-20T12:11:03.653Z,7.83
2022-10-20T12:13:40.736Z,8.00
2022-10-20T12:16:08.231Z,7.97
2022-10-20T12:18:36.855Z,8.23
2022-10-20T12:21:07.608Z,7.33
2022-10-20T12:24:02.401Z,8.20
2022-10-20T12:26:42.515Z,7.80
2022-10-20T12:29:51.960Z,8.03
2022-10-20T12:32:37.030Z,7.63
2022-10-20T12:35:42.560Z,8.23
2022-10-20T12:38:19.288Z,8.43
2022-10-20T12:40:53.566Z,8.57
2022-10-20T12:43:42.544Z,7.90
2022-10-20T12:48:57.672Z,9.40
2022-10-20T12:51:33.319Z,9.00
2022-10-20T12:54:05.549Z,9.47
2022-10-20T12:56:37.859Z,9.47
2022-10-20T12:59:21.857Z,8.83
2022-10-20T13:02:29.670Z,9.00
2022-10-20T13:05:00.071Z,8.70
2022-10-20T13:07:59.847Z,8.53
2022-10-20T13:10:33.911Z,8.27
2022-10-20T13:13:39.613Z,7.63
2022-10-20T13:16:18.549Z,8.23
2022-10-20T13:18:49.751Z,7.60
2022-10-20T13:21:28.283Z,7.57
2022-10-20T13:24:01.599Z,8.50
2022-10-20T13:26:32.525Z,8.00
2022-10-20T13:29:02.188Z,8.00
2022-10-20T13:31:34.171Z,7.57
2022-10-20T13:34:08.715Z,7.90
2022-10-20T13:36:53.779Z,7.70
2022-10-20T13:39:27.572Z,7.90
2022-10-20T13:42:08.126Z,7.33
2022-10-20T13:44:45.651Z,8.57
2022-10-20T13:47:37.177Z,8.20
2022-10-20T13:50:10.569Z,8.43
2022-10-20T13:52:42.737Z,8.07
2022-10-20T13:55:18.331Z,8.13
2022-10-20T13:57:55.257Z,7.70
2022-10-20T14:00:26.416Z,7.30
2022-10-20T14:03:00.920Z,7.97
2022-10-20T14:05:29.861Z,8.07
2022-10-20T14:07:57.350Z,7.87
2022-10-20T14:10:28.973Z,8.00
2022-10-20T14:12:58.424Z,8.30
2022-10-20T14:15:30.682Z,8.23
2022-10-20T14:18:03.666Z,8.10
2022-10-20T14:20:32.163Z,7.27
2022-10-20T14:23:01.879Z,8.13
2022-10-20T14:25:30.590Z,7.97
2022-10-20T14:28:01.867Z,8.53
2022-10-20T14:30:34.549Z,7.67
2022-10-20T14:33:03.925Z,8.07
2022-10-20T14:35:40.269Z,8.50
2022-10-20T14:38:18.525Z,8.57
2022-10-20T14:40:52.179Z,7.83
2022-10-20T14:43:24.958Z,8.73
2022-10-20T14:45:55.579Z,8.47
2022-10-20T14:48:23.553Z,8.47
2022-10-20T14:50:51.472Z,8.37
2022-10-20T14:53:30.052Z,8.90
2022-10-20T14:56:00.530Z,8.07
2022-10-20T14:58:36.121Z,7.93
2022-10-20T15:01:28.715Z,8.47
2022-10-20T15:06:40.419Z,9.07
2022-10-20T15:09:18.513Z,9.73
2022-10-20T15:11:46.204Z,9.90
2022-10-20T15:14:17.490Z,8.83
2022-10-20T15:16:46.677Z,9.53
2022-10-20T15:19:30.767Z,9.40
2022-10-20T15:22:01.329Z,9.17
2022-10-20T15:24:29.599Z,9.97
2022-10-20T15:26:58.524Z,9.53
2022-10-20T15:29:28.332Z,9.87
2022-10-20T15:31:56.386Z,9.80
2022-10-20T15:34:23.900Z,10.13
2022-10-20T15:36:51.355Z,9.97
2022-10-20T15:39:18.904Z,10.00
2022-10-20T15:41:48.016Z,10.03
2022-10-20T15:44:21.406Z,10.47
2022-10-20T15:46:53.337Z,10.17
2022-10-20T15:49:21.023Z,10.50
2022-10-20T15:51:50.726Z,10.63
2022-10-20T15:54:20.335Z,10.10
2022-10-20T15:56:47.877Z,9.30
2022-10-20T15:59:15.334Z,9.67
2022-10-20T16:01:43.152Z,10.77
2022-10-20T16:04:19.285Z,10.10
2022-10-20T16:06:47.089Z,10.77
2022-10-20T16:09:16.156Z,10.27
2022-10-20T16:11:44.176Z,10.87
2022-10-20T16:14:11.648Z,11.53
2022-10-20T16:16:39.125Z,10.70
2022-10-20T16:19:06.567Z,10.77
2022-10-20T16:21:35.837Z,10.53
2022-10-20T16:24:03.371Z,10.43
2022-10-20T16:26:30.844Z,9.73
2022-10-20T16:28:58.342Z,9.93
2022-10-20T16:31:25.856Z,11.07
2022-10-20T16:33:53.297Z,10.50
2022-10-20T16:36:21.696Z,10.67
2022-10-20T16:38:55.520Z,11.30
2022-10-20T16:41:23.288Z,10.63
2022-10-20T16:43:50.744Z,10.50
2022-10-20T16:46:18.206Z,10.57
2022-10-20T16:48:47.857Z,9.83
2022-10-20T16:51:16.154Z,9.83
2022-10-20T16:53:44.296Z,11.40
2022-10-20T16:56:16.632Z,11.03
2022-10-20T16:58:47.381Z,10.50
2022-10-20T17:01:17.060Z,10.90
2022-10-20T17:03:46.536Z,10.03
2022-10-20T17:06:15.874Z,10.00
2022-10-20T17:08:43.445Z,10.67
2022-10-20T17:11:14.209Z,10.37
2022-10-20T17:13:42.873Z,10.90
2022-10-20T17:16:12.494Z,10.30
2022-10-20T17:18:40.386Z,11.00
2022-10-20T17:21:08.769Z,10.93
2022-10-20T17:23:41.643Z,10.93
2022-10-20T17:26:15.637Z,11.37
2022-10-20T17:28:43.831Z,10.50
2022-10-20T17:31:13.533Z,11.37
2022-10-20T17:33:42.717Z,11.03
2022-10-20T17:36:11.540Z,11.30
2022-10-20T17:38:39.919Z,10.37
2022-10-20T17:41:09.544Z,11.00
2022-10-20T17:43:38.398Z,11.50
2022-10-20T17:46:07.411Z,11.37
2022-10-20T17:48:36.431Z,11.57
2022-10-20T17:51:05.588Z,10.63
2022-10-20T17:53:33.431Z,11.30
2022-10-20T17:56:05.622Z,11.77
2022-10-20T17:58:33.639Z,11.87
2022-10-20T18:01:10.717Z,11.00
2022-10-20T18:03:38.432Z,11.23
2022-10-20T18:06:10.994Z,10.93
2022-10-20T18:08:38.901Z,10.47
2022-10-20T18:11:10.643Z,11.03
2022-10-20T18:13:38.984Z,10.33
2022-10-20T18:16:10.712Z,11.03
2022-10-20T18:18:39.215Z,10.90
2022-10-20T18:21:08.418Z,9.90
2022-10-20T18:23:36.919Z,10.43
2022-10-20T18:26:07.439Z,11.00
2022-10-20T18:28:35.330Z,11.10
2022-10-20T18:31:06.941Z,10.87
2022-10-20T18:33:36.028Z,10.27
2022-10-20T18:36:05.215Z,10.27
2022-10-20T18:38:35.531Z,10.87
2022-10-20T18:41:07.174Z,11.17
2022-10-20T18:43:34.792Z,11.23
2022-10-20T18:46:03.435Z,10.70
2022-10-20T18:48:31.987Z,10.97
2022-10-20T18:51:02.464Z,10.20
2022-10-20T18:53:31.461Z,10.00
2022-10-20T18:56:00.499Z,10.83
2022-10-20T18:58:28.041Z,10.87
2022-10-20T19:01:00.092Z,10.90
2022-10-20T19:03:31.102Z,10.43
2022-10-20T19:06:03.224Z,10.57
2022-10-20T19:08:31.169Z,9.57
2022-10-20T19:10:58.726Z,9.33
2022-10-20T19:13:26.885Z,10.50
2022-10-20T19:15:54.687Z,10.20
2022-10-20T19:18:22.592Z,10.60
2022-10-20T19:20:57.174Z,11.33
2022-10-20T19:23:26.751Z,11.80
2022-10-20T19:26:05.829Z,11.03
2022-10-20T19:28:35.378Z,11.40
2022-10-20T19:31:03.136Z,10.93
2022-10-20T19:33:30.590Z,11.63
2022-10-20T19:35:58.099Z,10.57
2022-10-20T19:38:27.157Z,11.33
2022-10-20T19:40:54.935Z,9.77
2022-10-20T19:43:22.454Z,10.67
2022-10-20T19:45:49.972Z,10.70
2022-10-20T19:48:17.456Z,10.30
2022-10-20T19:50:44.910Z,10.07
2022-10-20T19:53:12.699Z,10.20
2022-10-20T19:55:41.487Z,9.87
2022-10-20T20:00:43.869Z,9.63
2022-10-20T20:03:11.409Z,10.13
2022-10-20T20:05:38.891Z,10.43
2022-10-20T20:08:06.580Z,10.10
2022-10-20T20:10:35.318Z,10.13
2022-10-20T20:13:04.375Z,10.17
2022-10-20T20:15:32.079Z,10.53
2022-10-20T20:17:59.592Z,9.47
2022-10-20T20:20:27.058Z,10.90
2022-10-20T20:22:54.537Z,9.20
2022-10-20T20:25:22.034Z,9.80
2022-10-20T20:27:49.457Z,9.37
2022-10-20T20:30:18.534Z,8.23
2022-10-20T20:32:47.786Z,8.03
2022-10-20T20:35:18.509Z,7.93
2022-10-20T20:37:45.985Z,8.57
2022-10-20T20:40:13.759Z,8.37
2022-10-20T20:42:41.481Z,7.93
2022-10-20T20:45:10.119Z,10.73
2022-10-20T20:47:39.300Z,9.50
2022-10-20T20:50:08.057Z,8.47
2022-10-20T20:52:35.569Z,9.80
2022-10-20T20:55:03.012Z,10.27
2022-10-20T20:57:30.703Z,9.47
2022-10-20T20:59:58.235Z,9.57
2022-10-20T21:02:25.701Z,9.47
2022-10-20T21:04:54.781Z,9.33
2022-10-20T21:07:22.243Z,9.60
2022-10-20T21:09:49.722Z,9.83
2022-10-20T21:12:17.361Z,10.00
2022-10-20T21:14:44.821Z,10.00
2022-10-20T21:17:12.259Z,9.87
2022-10-20T21:19:39.762Z,9.40
2022-10-20T21:22:08.591Z,9.73
2022-10-20T21:24:36.105Z,10.23
2022-10-20T21:27:03.630Z,10.03
2022-10-20T21:29:31.549Z,10.40
2022-10-20T21:31:58.994Z,10.10
2022-10-20T21:34:26.855Z,10.23
2022-10-20T21:36:54.305Z,10.30
2022-10-20T21:39:23.181Z,10.03
2022-10-20T21:41:51.134Z,10.43
2022-10-20T21:44:18.624Z,9.70
2022-10-20T21:46:49.287Z,9.90
2022-10-20T21:49:18.747Z,9.50
2022-10-20T21:51:48.186Z,10.00
2022-10-20T21:54:17.416Z,10.40
2022-10-20T21:56:47.145Z,9.20
2022-10-20T21:59:20.174Z,10.30
2022-10-20T22:01:48.695Z,9.73
2022-10-20T22:04:16.500Z,8.43
2022-10-20T22:06:44.046Z,8.43
2022-10-20T22:09:12.602Z,9.10
2022-10-20T22:11:42.889Z,10.00
2022-10-20T22:14:12.558Z,9.67
2022-10-20T22:16:41.784Z,7.93
2022-10-20T22:19:12.769Z,8.33
2022-10-20T22:21:42.172Z,9.47
2022-10-20T22:24:10.223Z,8.87
2022-10-20T22:26:38.060Z,9.80
2022-10-20T22:29:09.359Z,8.90
2022-10-20T22:31:39.743Z,7.80
2022-10-20T22:34:07.891Z,8.33
2022-10-20T22:36:35.824Z,7.90
2022-10-20T22:39:03.640Z,8.23
2022-10-20T22:41:31.122Z,8.23
2022-10-20T22:43:58.997Z,10.03
2022-10-20T22:46:26.695Z,10.10
2022-10-20T22:48:55.623Z,10.13
2022-10-20T22:51:23.230Z,9.40
2022-10-20T22:53:50.677Z,9.67
2022-10-20T22:56:21.043Z,10.20
2022-10-20T22:58:49.478Z,9.23
2022-10-20T23:01:18.860Z,9.30
2022-10-20T23:03:47.278Z,8.17
2022-10-20T23:06:18.849Z,8.93
2022-10-20T23:08:49.418Z,8.30
2022-10-20T23:11:17.834Z,8.03
2022-10-20T23:13:46.997Z,8.50
2022-10-20T23:16:15.398Z,8.87
2022-10-20T23:18:43.459Z,9.37
2022-10-20T23:21:11.374Z,8.37
2022-10-20T23:23:40.335Z,9.50
2022-10-20T23:26:08.926Z,9.93
2022-10-20T23:28:37.502Z,9.27
2022-10-20T23:31:09.565Z,9.57
2022-10-20T23:33:37.575Z,9.50
2022-10-20T23:36:05.832Z,9.27
2022-10-20T23:38:33.279Z,9.43
2022-10-20T23:41:02.091Z,8.83
2022-10-20T23:43:29.646Z,9.30
2022-10-20T23:45:57.215Z,9.07
2022-10-20T23:48:24.855Z,9.93
2022-10-20T23:50:52.353Z,9.77
2022-10-20T23:53:19.789Z,9.47
2022-10-20T23:55:47.464Z,9.57
2022-10-20T23:58:20.948Z,9.37
